sensor_id;sensor_type;location;lat;lon;timestamp;P1;durP1;ratioP1;P2;durP2;ratioP2
25359;SDS011;13311;51.386;0.016;2023-07-13T00:02:21;9.57;;;2.45;;
25359;SDS011;13311;51.386;0.016;2023-07-13T00:07:22;7.25;;;1.70;;
25359;SDS011;13311;51.386;0.016;2023-07-13T00:12:28;5.82;;;2.20;;
25359;SDS011;13311;51.386;0.016;2023-07-13T00:17:36;7.97;;;2.25;;
25359;SDS011;13311;51.386;0.016;2023-07-13T00:22:38;6.15;;;1.90;;
25359;SDS011;13311;51.386;0.016;2023-07-13T00:27:39;9.23;;;2.75;;
25359;SDS011;13311;51.386;0.016;2023-07-13T00:32:41;4.55;;;2.42;;
25359;SDS011;13311;51.386;0.016;2023-07-13T00:37:42;8.35;;;2.45;;
25359;SDS011;13311;51.386;0.016;2023-07-13T00:42:43;4.15;;;2.63;;
25359;SDS011;13311;51.386;0.016;2023-07-13T00:47:44;7.47;;;2.38;;
25359;SDS011;13311;51.386;0.016;2023-07-13T00:52:45;6.00;;;1.90;;
25359;SDS011;13311;51.386;0.016;2023-07-13T00:57:50;5.28;;;2.10;;
25359;SDS011;13311;51.386;0.016;2023-07-13T01:02:51;5.32;;;2.20;;
25359;SDS011;13311;51.386;0.016;2023-07-13T01:07:52;14.02;;;2.00;;
25359;SDS011;13311;51.386;0.016;2023-07-13T01:12:53;6.85;;;2.30;;
25359;SDS011;13311;51.386;0.016;2023-07-13T01:17:54;7.10;;;2.63;;
25359;SDS011;13311;51.386;0.016;2023-07-13T01:22:55;3.35;;;1.75;;
25359;SDS011;13311;51.386;0.016;2023-07-13T01:27:56;5.07;;;2.33;;
25359;SDS011;13311;51.386;0.016;2023-07-13T01:32:57;7.80;;;2.10;;
25359;SDS011;13311;51.386;0.016;2023-07-13T01:37:58;5.82;;;2.60;;
25359;SDS011;13311;51.386;0.016;2023-07-13T01:43:01;8.00;;;2.33;;
25359;SDS011;13311;51.386;0.016;2023-07-13T01:48:02;7.68;;;2.35;;
25359;SDS011;13311;51.386;0.016;2023-07-13T01:53:04;4.60;;;2.50;;
25359;SDS011;13311;51.386;0.016;2023-07-13T01:58:05;8.95;;;2.28;;
25359;SDS011;13311;51.386;0.016;2023-07-13T02:03:06;4.82;;;2.88;;
25359;SDS011;13311;51.386;0.016;2023-07-13T02:08:07;5.55;;;2.15;;
25359;SDS011;13311;51.386;0.016;2023-07-13T02:13:08;3.95;;;2.40;;
25359;SDS011;13311;51.386;0.016;2023-07-13T02:18:08;7.47;;;2.72;;
25359;SDS011;13311;51.386;0.016;2023-07-13T02:23:09;5.53;;;2.17;;
25359;SDS011;13311;51.386;0.016;2023-07-13T02:28:11;6.82;;;1.95;;
25359;SDS011;13311;51.386;0.016;2023-07-13T02:33:11;6.07;;;2.55;;
25359;SDS011;13311;51.386;0.016;2023-07-13T02:38:12;5.03;;;2.08;;
25359;SDS011;13311;51.386;0.016;2023-07-13T02:43:13;6.22;;;2.50;;
25359;SDS011;13311;51.386;0.016;2023-07-13T02:48:14;6.32;;;2.45;;
25359;SDS011;13311;51.386;0.016;2023-07-13T02:53:15;5.75;;;2.00;;
25359;SDS011;13311;51.386;0.016;2023-07-13T02:58:16;6.70;;;2.13;;
25359;SDS011;13311;51.386;0.016;2023-07-13T03:03:17;9.43;;;2.30;;
25359;SDS011;13311;51.386;0.016;2023-07-13T03:08:18;5.28;;;2.15;;
25359;SDS011;13311;51.386;0.016;2023-07-13T03:13:19;4.18;;;2.42;;
25359;SDS011;13311;51.386;0.016;2023-07-13T03:18:19;4.93;;;2.22;;
25359;SDS011;13311;51.386;0.016;2023-07-13T03:23:21;8.55;;;2.35;;
25359;SDS011;13311;51.386;0.016;2023-07-13T03:28:22;8.32;;;2.10;;
25359;SDS011;13311;51.386;0.016;2023-07-13T03:33:22;6.25;;;2.30;;
25359;SDS011;13311;51.386;0.016;2023-07-13T03:38:23;6.60;;;2.30;;
25359;SDS011;13311;51.386;0.016;2023-07-13T03:43:25;9.45;;;2.20;;
25359;SDS011;13311;51.386;0.016;2023-07-13T03:48:25;5.25;;;1.90;;
25359;SDS011;13311;51.386;0.016;2023-07-13T03:53:26;4.72;;;1.92;;
25359;SDS011;13311;51.386;0.016;2023-07-13T04:03:38;5.82;;;2.20;;
25359;SDS011;13311;51.386;0.016;2023-07-13T04:08:39;7.70;;;2.85;;
25359;SDS011;13311;51.386;0.016;2023-07-13T04:13:41;8.63;;;3.17;;
25359;SDS011;13311;51.386;0.016;2023-07-13T04:18:42;6.57;;;2.20;;
25359;SDS011;13311;51.386;0.016;2023-07-13T04:23:42;8.38;;;2.05;;
25359;SDS011;13311;51.386;0.016;2023-07-13T04:28:43;6.95;;;2.40;;
25359;SDS011;13311;51.386;0.016;2023-07-13T04:33:44;7.43;;;2.47;;
25359;SDS011;13311;51.386;0.016;2023-07-13T04:38:45;4.82;;;1.63;;
25359;SDS011;13311;51.386;0.016;2023-07-13T04:43:45;8.45;;;2.35;;
25359;SDS011;13311;51.386;0.016;2023-07-13T04:48:46;8.38;;;2.00;;
25359;SDS011;13311;51.386;0.016;2023-07-13T04:53:49;5.53;;;2.15;;
25359;SDS011;13311;51.386;0.016;2023-07-13T04:58:50;6.72;;;1.73;;
25359;SDS011;13311;51.386;0.016;2023-07-13T05:03:50;6.40;;;2.10;;
25359;SDS011;13311;51.386;0.016;2023-07-13T05:08:51;5.03;;;2.33;;
25359;SDS011;13311;51.386;0.016;2023-07-13T05:13:52;7.20;;;2.20;;
25359;SDS011;13311;51.386;0.016;2023-07-13T05:18:53;4.88;;;1.90;;
25359;SDS011;13311;51.386;0.016;2023-07-13T05:23:53;3.72;;;1.90;;
25359;SDS011;13311;51.386;0.016;2023-07-13T05:28:54;4.45;;;2.05;;
25359;SDS011;13311;51.386;0.016;2023-07-13T05:33:55;4.72;;;1.85;;
25359;SDS011;13311;51.386;0.016;2023-07-13T05:38:56;4.55;;;2.03;;
25359;SDS011;13311;51.386;0.016;2023-07-13T05:43:56;4.03;;;1.95;;
25359;SDS011;13311;51.386;0.016;2023-07-13T05:48:57;4.53;;;2.08;;
25359;SDS011;13311;51.386;0.016;2023-07-13T05:53:58;4.72;;;1.65;;
25359;SDS011;13311;51.386;0.016;2023-07-13T05:58:59;6.07;;;1.60;;
25359;SDS011;13311;51.386;0.016;2023-07-13T06:03:59;5.40;;;1.98;;
25359;SDS011;13311;51.386;0.016;2023-07-13T06:09:00;3.72;;;1.63;;
25359;SDS011;13311;51.386;0.016;2023-07-13T06:14:01;5.38;;;1.63;;
25359;SDS011;13311;51.386;0.016;2023-07-13T06:19:03;4.25;;;1.80;;
25359;SDS011;13311;51.386;0.016;2023-07-13T06:24:04;3.78;;;1.48;;
25359;SDS011;13311;51.386;0.016;2023-07-13T06:29:05;4.13;;;1.88;;
25359;SDS011;13311;51.386;0.016;2023-07-13T06:34:06;2.40;;;1.38;;
25359;SDS011;13311;51.386;0.016;2023-07-13T06:39:07;3.78;;;2.00;;
25359;SDS011;13311;51.386;0.016;2023-07-13T06:44:08;9.95;;;3.38;;
25359;SDS011;13311;51.386;0.016;2023-07-13T06:49:09;4.95;;;1.60;;
25359;SDS011;13311;51.386;0.016;2023-07-13T06:54:09;6.90;;;1.77;;
25359;SDS011;13311;51.386;0.016;2023-07-13T06:59:10;3.53;;;1.40;;
25359;SDS011;13311;51.386;0.016;2023-07-13T07:04:11;4.97;;;1.55;;
25359;SDS011;13311;51.386;0.016;2023-07-13T07:09:12;4.45;;;1.88;;
25359;SDS011;13311;51.386;0.016;2023-07-13T07:14:13;4.85;;;1.77;;
25359;SDS011;13311;51.386;0.016;2023-07-13T07:19:14;3.33;;;1.30;;
25359;SDS011;13311;51.386;0.016;2023-07-13T07:24:15;6.32;;;1.73;;
25359;SDS011;13311;51.386;0.016;2023-07-13T07:29:16;3.35;;;1.50;;
25359;SDS011;13311;51.386;0.016;2023-07-13T07:34:16;2.53;;;1.42;;
25359;SDS011;13311;51.386;0.016;2023-07-13T07:39:17;7.20;;;1.85;;
25359;SDS011;13311;51.386;0.016;2023-07-13T07:44:18;2.55;;;1.20;;
25359;SDS011;13311;51.386;0.016;2023-07-13T07:49:19;5.45;;;1.30;;
25359;SDS011;13311;51.386;0.016;2023-07-13T07:54:20;3.92;;;1.20;;
25359;SDS011;13311;51.386;0.016;2023-07-13T07:59:21;3.00;;;1.20;;
25359;SDS011;13311;51.386;0.016;2023-07-13T08:04:22;3.38;;;1.27;;
25359;SDS011;13311;51.386;0.016;2023-07-13T08:09:23;3.17;;;1.25;;
25359;SDS011;13311;51.386;0.016;2023-07-13T08:14:24;15.80;;;2.45;;
25359;SDS011;13311;51.386;0.016;2023-07-13T08:19:24;4.22;;;1.70;;
25359;SDS011;13311;51.386;0.016;2023-07-13T08:24:25;3.90;;;1.80;;
25359;SDS011;13311;51.386;0.016;2023-07-13T08:29:26;3.08;;;1.65;;
25359;SDS011;13311;51.386;0.016;2023-07-13T08:34:26;2.83;;;1.33;;
25359;SDS011;13311;51.386;0.016;2023-07-13T08:39:28;4.47;;;1.55;;
25359;SDS011;13311;51.386;0.016;2023-07-13T08:44:38;2.92;;;1.00;;
25359;SDS011;13311;51.386;0.016;2023-07-13T08:49:52;4.00;;;1.52;;
25359;SDS011;13311;51.386;0.016;2023-07-13T08:54:54;3.53;;;1.73;;
25359;SDS011;13311;51.386;0.016;2023-07-13T08:59:58;3.45;;;1.67;;
25359;SDS011;13311;51.386;0.016;2023-07-13T09:05:03;3.47;;;1.73;;
25359;SDS011;13311;51.386;0.016;2023-07-13T09:10:28;2.17;;;1.60;;
25359;SDS011;13311;51.386;0.016;2023-07-13T09:15:36;3.60;;;1.58;;
25359;SDS011;13311;51.386;0.016;2023-07-13T09:21:04;5.40;;;1.70;;
25359;SDS011;13311;51.386;0.016;2023-07-13T09:26:17;4.18;;;1.10;;
25359;SDS011;13311;51.386;0.016;2023-07-13T09:31:42;5.40;;;1.85;;
25359;SDS011;13311;51.386;0.016;2023-07-13T09:36:47;3.20;;;1.30;;
25359;SDS011;13311;51.386;0.016;2023-07-13T09:42:21;2.55;;;1.15;;
25359;SDS011;13311;51.386;0.016;2023-07-13T09:47:23;3.03;;;1.30;;
25359;SDS011;13311;51.386;0.016;2023-07-13T09:52:27;3.35;;;1.42;;
25359;SDS011;13311;51.386;0.016;2023-07-13T09:57:50;2.53;;;1.02;;
25359;SDS011;13311;51.386;0.016;2023-07-13T10:03:03;2.45;;;0.90;;
25359;SDS011;13311;51.386;0.016;2023-07-13T10:08:28;1.90;;;0.90;;
25359;SDS011;13311;51.386;0.016;2023-07-13T10:13:33;4.35;;;1.00;;
25359;SDS011;13311;51.386;0.016;2023-07-13T10:23:54;1.83;;;1.08;;
25359;SDS011;13311;51.386;0.016;2023-07-13T10:29:06;1.63;;;1.00;;
25359;SDS011;13311;51.386;0.016;2023-07-13T10:34:11;1.00;;;0.63;;
25359;SDS011;13311;51.386;0.016;2023-07-13T10:39:15;3.13;;;1.10;;
25359;SDS011;13311;51.386;0.016;2023-07-13T10:44:30;9.30;;;1.77;;
25359;SDS011;13311;51.386;0.016;2023-07-13T10:49:33;2.63;;;1.20;;
25359;SDS011;13311;51.386;0.016;2023-07-13T10:54:37;2.78;;;1.40;;
25359;SDS011;13311;51.386;0.016;2023-07-13T10:59:38;1.83;;;1.58;;
25359;SDS011;13311;51.386;0.016;2023-07-13T11:04:47;1.83;;;1.13;;
25359;SDS011;13311;51.386;0.016;2023-07-13T11:09:50;1.67;;;1.00;;
25359;SDS011;13311;51.386;0.016;2023-07-13T11:19:54;4.72;;;1.48;;
25359;SDS011;13311;51.386;0.016;2023-07-13T11:25:33;2.17;;;1.10;;
25359;SDS011;13311;51.386;0.016;2023-07-13T11:30:36;6.63;;;1.30;;
25359;SDS011;13311;51.386;0.016;2023-07-13T11:36:02;1.02;;;0.85;;
25359;SDS011;13311;51.386;0.016;2023-07-13T11:41:06;1.90;;;1.00;;
25359;SDS011;13311;51.386;0.016;2023-07-13T11:46:19;2.05;;;1.10;;
25359;SDS011;13311;51.386;0.016;2023-07-13T11:56:31;3.83;;;1.02;;
25359;SDS011;13311;51.386;0.016;2023-07-13T12:01:33;1.38;;;1.10;;
25359;SDS011;13311;51.386;0.016;2023-07-13T12:06:42;2.17;;;0.98;;
25359;SDS011;13311;51.386;0.016;2023-07-13T12:11:43;3.42;;;1.50;;
25359;SDS011;13311;51.386;0.016;2023-07-13T12:16:47;2.13;;;1.35;;
25359;SDS011;13311;51.386;0.016;2023-07-13T12:21:49;3.03;;;1.30;;
25359;SDS011;13311;51.386;0.016;2023-07-13T12:26:58;1.90;;;1.30;;
25359;SDS011;13311;51.386;0.016;2023-07-13T12:32:02;2.50;;;1.23;;
25359;SDS011;13311;51.386;0.016;2023-07-13T12:37:10;2.28;;;1.35;;
25359;SDS011;13311;51.386;0.016;2023-07-13T12:47:29;2.95;;;1.52;;
25359;SDS011;13311;51.386;0.016;2023-07-13T12:52:31;2.65;;;1.38;;
25359;SDS011;13311;51.386;0.016;2023-07-13T12:57:38;3.60;;;1.33;;
25359;SDS011;13311;51.386;0.016;2023-07-13T13:02:43;4.60;;;1.85;;
25359;SDS011;13311;51.386;0.016;2023-07-13T13:07:44;3.10;;;1.92;;
25359;SDS011;13311;51.386;0.016;2023-07-13T13:12:47;1.30;;;1.00;;
25359;SDS011;13311;51.386;0.016;2023-07-13T13:17:48;1.70;;;0.90;;
25359;SDS011;13311;51.386;0.016;2023-07-13T13:22:49;1.80;;;0.88;;
25359;SDS011;13311;51.386;0.016;2023-07-13T13:27:50;4.57;;;1.52;;
25359;SDS011;13311;51.386;0.016;2023-07-13T13:32:51;3.42;;;1.25;;
25359;SDS011;13311;51.386;0.016;2023-07-13T13:37:51;2.47;;;1.30;;
25359;SDS011;13311;51.386;0.016;2023-07-13T13:42:53;6.15;;;1.33;;
25359;SDS011;13311;51.386;0.016;2023-07-13T13:47:56;2.88;;;1.05;;
25359;SDS011;13311;51.386;0.016;2023-07-13T13:52:56;4.88;;;1.92;;
25359;SDS011;13311;51.386;0.016;2023-07-13T13:57:57;6.97;;;2.28;;
25359;SDS011;13311;51.386;0.016;2023-07-13T14:02:58;5.20;;;2.13;;
25359;SDS011;13311;51.386;0.016;2023-07-13T14:07:59;4.97;;;1.83;;
25359;SDS011;13311;51.386;0.016;2023-07-13T14:13:00;4.40;;;1.40;;
25359;SDS011;13311;51.386;0.016;2023-07-13T14:18:01;4.03;;;1.27;;
25359;SDS011;13311;51.386;0.016;2023-07-13T14:23:01;3.58;;;1.85;;
25359;SDS011;13311;51.386;0.016;2023-07-13T14:28:04;3.00;;;1.42;;
25359;SDS011;13311;51.386;0.016;2023-07-13T14:33:24;3.72;;;1.52;;
25359;SDS011;13311;51.386;0.016;2023-07-13T14:38:25;4.28;;;1.20;;
25359;SDS011;13311;51.386;0.016;2023-07-13T14:43:25;4.30;;;1.70;;
25359;SDS011;13311;51.386;0.016;2023-07-13T14:48:29;2.40;;;1.45;;
25359;SDS011;13311;51.386;0.016;2023-07-13T14:53:30;5.65;;;1.92;;
25359;SDS011;13311;51.386;0.016;2023-07-13T14:58:31;4.68;;;1.48;;
25359;SDS011;13311;51.386;0.016;2023-07-13T15:03:32;3.15;;;1.52;;
25359;SDS011;13311;51.386;0.016;2023-07-13T15:08:33;3.42;;;1.65;;
25359;SDS011;13311;51.386;0.016;2023-07-13T15:13:34;2.38;;;1.50;;
25359;SDS011;13311;51.386;0.016;2023-07-13T15:18:35;4.25;;;1.63;;
25359;SDS011;13311;51.386;0.016;2023-07-13T15:23:40;3.47;;;1.70;;
25359;SDS011;13311;51.386;0.016;2023-07-13T15:28:42;5.97;;;2.50;;
25359;SDS011;13311;51.386;0.016;2023-07-13T15:33:43;5.82;;;2.28;;
25359;SDS011;13311;51.386;0.016;2023-07-13T15:38:45;7.35;;;3.00;;
25359;SDS011;13311;51.386;0.016;2023-07-13T15:43:51;4.10;;;1.75;;
25359;SDS011;13311;51.386;0.016;2023-07-13T15:48:55;3.92;;;1.88;;
25359;SDS011;13311;51.386;0.016;2023-07-13T15:53:59;5.80;;;2.58;;
25359;SDS011;13311;51.386;0.016;2023-07-13T15:59:05;16.90;;;2.60;;
25359;SDS011;13311;51.386;0.016;2023-07-13T16:04:05;6.25;;;2.40;;
25359;SDS011;13311;51.386;0.016;2023-07-13T16:09:07;5.93;;;1.90;;
25359;SDS011;13311;51.386;0.016;2023-07-13T16:14:22;3.83;;;2.00;;
25359;SDS011;13311;51.386;0.016;2023-07-13T16:19:24;4.55;;;2.20;;
25359;SDS011;13311;51.386;0.016;2023-07-13T16:24:28;5.70;;;1.92;;
25359;SDS011;13311;51.386;0.016;2023-07-13T16:29:31;4.82;;;2.38;;
25359;SDS011;13311;51.386;0.016;2023-07-13T16:34:33;9.13;;;2.22;;
25359;SDS011;13311;51.386;0.016;2023-07-13T16:39:36;3.47;;;2.25;;
25359;SDS011;13311;51.386;0.016;2023-07-13T16:44:37;4.50;;;2.72;;
25359;SDS011;13311;51.386;0.016;2023-07-13T16:49:39;4.50;;;1.80;;
25359;SDS011;13311;51.386;0.016;2023-07-13T16:54:40;4.53;;;1.75;;
25359;SDS011;13311;51.386;0.016;2023-07-13T16:59:41;7.20;;;2.78;;
25359;SDS011;13311;51.386;0.016;2023-07-13T17:04:42;6.40;;;2.58;;
25359;SDS011;13311;51.386;0.016;2023-07-13T17:09:46;6.75;;;3.03;;
25359;SDS011;13311;51.386;0.016;2023-07-13T17:14:46;9.45;;;2.50;;
25359;SDS011;13311;51.386;0.016;2023-07-13T17:19:48;6.78;;;2.45;;
25359;SDS011;13311;51.386;0.016;2023-07-13T17:24:52;7.90;;;2.88;;
25359;SDS011;13311;51.386;0.016;2023-07-13T17:29:52;8.00;;;2.72;;
25359;SDS011;13311;51.386;0.016;2023-07-13T17:34:54;6.70;;;2.75;;
25359;SDS011;13311;51.386;0.016;2023-07-13T17:39:55;6.13;;;2.90;;
25359;SDS011;13311;51.386;0.016;2023-07-13T17:44:57;4.18;;;2.22;;
25359;SDS011;13311;51.386;0.016;2023-07-13T17:49:58;6.30;;;2.50;;
25359;SDS011;13311;51.386;0.016;2023-07-13T17:54:59;4.13;;;2.40;;
25359;SDS011;13311;51.386;0.016;2023-07-13T18:00:03;5.05;;;2.40;;
25359;SDS011;13311;51.386;0.016;2023-07-13T18:05:24;4.55;;;2.15;;
25359;SDS011;13311;51.386;0.016;2023-07-13T18:10:24;6.00;;;2.47;;
25359;SDS011;13311;51.386;0.016;2023-07-13T18:15:27;4.82;;;2.20;;
25359;SDS011;13311;51.386;0.016;2023-07-13T18:20:31;3.22;;;1.92;;
25359;SDS011;13311;51.386;0.016;2023-07-13T18:25:32;4.60;;;2.72;;
25359;SDS011;13311;51.386;0.016;2023-07-13T18:30:33;8.48;;;2.58;;
25359;SDS011;13311;51.386;0.016;2023-07-13T18:35:35;5.30;;;2.55;;
25359;SDS011;13311;51.386;0.016;2023-07-13T18:40:38;3.92;;;1.50;;
25359;SDS011;13311;51.386;0.016;2023-07-13T18:45:39;3.28;;;1.58;;
25359;SDS011;13311;51.386;0.016;2023-07-13T18:50:40;2.28;;;1.30;;
25359;SDS011;13311;51.386;0.016;2023-07-13T18:55:43;6.68;;;1.98;;
25359;SDS011;13311;51.386;0.016;2023-07-13T19:00:45;2.72;;;1.45;;
25359;SDS011;13311;51.386;0.016;2023-07-13T19:05:57;3.47;;;2.00;;
25359;SDS011;13311;51.386;0.016;2023-07-13T19:10:59;4.43;;;2.28;;
25359;SDS011;13311;51.386;0.016;2023-07-13T19:16:00;1.80;;;1.20;;
25359;SDS011;13311;51.386;0.016;2023-07-13T19:21:02;1.58;;;1.48;;
25359;SDS011;13311;51.386;0.016;2023-07-13T19:26:33;1.48;;;1.33;;
25359;SDS011;13311;51.386;0.016;2023-07-13T19:31:36;2.47;;;1.60;;
25359;SDS011;13311;51.386;0.016;2023-07-13T19:36:38;1.30;;;1.17;;
25359;SDS011;13311;51.386;0.016;2023-07-13T19:41:39;2.78;;;1.50;;
25359;SDS011;13311;51.386;0.016;2023-07-13T19:46:41;2.50;;;1.30;;
25359;SDS011;13311;51.386;0.016;2023-07-13T19:51:41;1.85;;;1.13;;
25359;SDS011;13311;51.386;0.016;2023-07-13T19:56:43;2.13;;;1.40;;
25359;SDS011;13311;51.386;0.016;2023-07-13T20:01:44;1.95;;;1.13;;
25359;SDS011;13311;51.386;0.016;2023-07-13T20:06:45;2.13;;;1.10;;
25359;SDS011;13311;51.386;0.016;2023-07-13T20:11:47;5.43;;;1.60;;
25359;SDS011;13311;51.386;0.016;2023-07-13T20:16:48;2.28;;;1.55;;
25359;SDS011;13311;51.386;0.016;2023-07-13T20:21:52;4.63;;;2.20;;
25359;SDS011;13311;51.386;0.016;2023-07-13T20:26:53;3.03;;;1.58;;
25359;SDS011;13311;51.386;0.016;2023-07-13T20:31:54;3.58;;;2.25;;
25359;SDS011;13311;51.386;0.016;2023-07-13T20:36:55;4.45;;;2.10;;
25359;SDS011;13311;51.386;0.016;2023-07-13T20:41:56;4.75;;;2.30;;
25359;SDS011;13311;51.386;0.016;2023-07-13T20:46:56;3.58;;;1.73;;
25359;SDS011;13311;51.386;0.016;2023-07-13T20:52:01;5.85;;;2.60;;
25359;SDS011;13311;51.386;0.016;2023-07-13T20:57:09;2.85;;;1.80;;
25359;SDS011;13311;51.386;0.016;2023-07-13T21:02:18;4.63;;;2.20;;
25359;SDS011;13311;51.386;0.016;2023-07-13T21:07:27;5.35;;;2.38;;
25359;SDS011;13311;51.386;0.016;2023-07-13T21:12:27;3.03;;;1.77;;
25359;SDS011;13311;51.386;0.016;2023-07-13T21:17:29;6.85;;;2.63;;
25359;SDS011;13311;51.386;0.016;2023-07-13T21:22:33;4.00;;;2.40;;
25359;SDS011;13311;51.386;0.016;2023-07-13T21:27:33;3.63;;;2.00;;
25359;SDS011;13311;51.386;0.016;2023-07-13T21:32:34;4.25;;;2.30;;
25359;SDS011;13311;51.386;0.016;2023-07-13T21:37:35;4.30;;;2.88;;
25359;SDS011;13311;51.386;0.016;2023-07-13T21:42:35;5.10;;;2.35;;
25359;SDS011;13311;51.386;0.016;2023-07-13T21:47:36;6.82;;;2.65;;
25359;SDS011;13311;51.386;0.016;2023-07-13T21:52:37;4.72;;;2.67;;
25359;SDS011;13311;51.386;0.016;2023-07-13T21:57:38;3.65;;;1.90;;
25359;SDS011;13311;51.386;0.016;2023-07-13T22:02:39;5.75;;;2.80;;
25359;SDS011;13311;51.386;0.016;2023-07-13T22:07:39;4.93;;;2.30;;
25359;SDS011;13311;51.386;0.016;2023-07-13T22:12:40;4.90;;;2.00;;
25359;SDS011;13311;51.386;0.016;2023-07-13T22:17:43;9.15;;;3.25;;
25359;SDS011;13311;51.386;0.016;2023-07-13T22:22:48;3.70;;;2.22;;
25359;SDS011;13311;51.386;0.016;2023-07-13T22:27:49;3.30;;;2.13;;
25359;SDS011;13311;51.386;0.016;2023-07-13T22:32:49;3.45;;;2.40;;
25359;SDS011;13311;51.386;0.016;2023-07-13T22:37:54;3.50;;;2.00;;
25359;SDS011;13311;51.386;0.016;2023-07-13T22:42:58;2.67;;;1.92;;
25359;SDS011;13311;51.386;0.016;2023-07-13T22:47:59;6.72;;;2.25;;
25359;SDS011;13311;51.386;0.016;2023-07-13T22:53:00;3.05;;;2.30;;
25359;SDS011;13311;51.386;0.016;2023-07-13T22:58:01;4.68;;;2.88;;
25359;SDS011;13311;51.386;0.016;2023-07-13T23:03:01;5.22;;;2.42;;
25359;SDS011;13311;51.386;0.016;2023-07-13T23:08:09;4.07;;;1.95;;
25359;SDS011;13311;51.386;0.016;2023-07-13T23:13:14;5.60;;;2.45;;
25359;SDS011;13311;51.386;0.016;2023-07-13T23:18:15;4.22;;;2.30;;
25359;SDS011;13311;51.386;0.016;2023-07-13T23:23:18;6.18;;;2.42;;
25359;SDS011;13311;51.386;0.016;2023-07-13T23:28:21;8.82;;;2.90;;
25359;SDS011;13311;51.386;0.016;2023-07-13T23:33:25;3.47;;;2.38;;
25359;SDS011;13311;51.386;0.016;2023-07-13T23:38:27;5.82;;;2.80;;
25359;SDS011;13311;51.386;0.016;2023-07-13T23:43:28;9.05;;;3.42;;
25359;SDS011;13311;51.386;0.016;2023-07-13T23:48:29;6.53;;;3.08;;
25359;SDS011;13311;51.386;0.016;2023-07-13T23:53:30;5.72;;;2.55;;
25359;SDS011;13311;51.386;0.016;2023-07-13T23:58:30;6.25;;;2.95;;
